KLNN

Willoughby Lost Nation Municipal Airport

Willoughby, Ohio, USA
METAR KLNN 201515Z AUTO 21014G21KT 10SM SCT060 BKN110 19/13 A3006 RMK AO1 T01920133
Observed Flight Rules
Feb-20 @ 15:15 UTC (2 hours ago) Visual Flight Rules
Wind Visibility Clouds
210° at 14 knots
 Gusting to 21 knots
10 miles
  • Scattered at 6,000' AGL
  • Broken at 11,000' AGL
Temperatures Readings
Current 19°C / 66°F
Dewpoint 13°C / 55°F
Humidity 68%
Altimeter 30.06" Hg
Pressure 1018 hPa
Elevation 191
METAR KLNN 201515Z AUTO 21014G21KT 10SM SCT060 BKN110 19/13 A3006 RMK AO1 T01920133
Observed Flight Rules
Feb-20 @ 15:15 UTC
(2 hours ago)
VFR
Wind Visibility
210° at 14 knots
 Gusting to 21 knots
10 miles
Clouds
  • Scattered at 6,000' AGL
  • Broken at 11,000' AGL
Temperature Dewpoint
19°C / 66°F 13°C / 55°F
Humidity Altimeter Pressure
68% 30.06" Hg 1018 hPa